Time;durP1;ratioP1;P1;durP2;ratioP2;P2;SDS_P1;SDS_P2;PMS_P1;PMS_P2;Temp;Humidity;BMP_temperature;BMP_pressure;BME280_temperature;BME280_humidity;BME280_pressure;Samples;Min_cycle;Max_cycle;Signal;HPM_P1;HPM_P2
2021/12/07 00:01:47;;;;;;;3.88;3.05;;;3.20;91.00;;;;;;7378104;19;20116;-54
2021/12/07 00:04:17;;;;;;;3.88;3.40;;;3.30;91.00;;;;;;7366563;19;20127;-54
2021/12/07 00:06:43;;;;;;;4.65;2.90;;;3.30;90.80;;;;;;7390604;19;20519;-55
2021/12/07 00:09:13;;;;;;;17.23;3.53;;;3.20;90.60;;;;;;7399071;19;20123;-54
2021/12/07 00:11:39;;;;;;;3.63;3.20;;;3.20;90.70;;;;;;7387767;19;20134;-54
2021/12/07 00:14:22;;;;;;;4.40;2.88;;;3.20;90.50;;;;;;7397962;19;20291;-54
2021/12/07 00:16:49;;;;;;;3.67;2.97;;;3.20;90.50;;;;;;7394410;19;20131;-54
2021/12/07 00:19:19;;;;;;;5.80;3.03;;;3.30;90.30;;;;;;7400426;19;20818;-53
2021/12/07 00:21:45;;;;;;;3.67;3.10;;;3.30;90.30;;;;;;7402752;19;20147;-53
2021/12/07 00:24:14;;;;;;;3.85;2.83;;;3.40;90.30;;;;;;7390920;19;20378;-53
2021/12/07 00:26:43;;;;;;;2.72;2.30;;;3.40;90.40;;;;;;7396273;19;20317;-53
2021/12/07 00:29:12;;;;;;;4.75;3.17;;;3.40;90.40;;;;;;7400706;19;20130;-53
2021/12/07 00:31:45;;;;;;;3.95;3.30;;;3.40;90.30;;;;;;7364678;19;20219;-53
2021/12/07 00:37:02;;;;;;;2.75;2.55;;;3.40;90.40;;;;;;7398653;19;20131;-53
2021/12/07 00:39:32;;;;;;;4.07;2.97;;;3.30;90.60;;;;;;7391927;19;20334;-53
2021/12/07 00:41:59;;;;;;;4.13;2.83;;;3.30;90.80;;;;;;7394250;19;20141;-53
2021/12/07 00:44:28;;;;;;;4.32;3.08;;;3.50;90.70;;;;;;7396715;19;20293;-53
2021/12/07 00:46:55;;;;;;;3.10;2.75;;;3.50;90.70;;;;;;7378942;19;20158;-53
2021/12/07 00:49:24;;;;;;;4.68;3.20;;;3.70;90.80;;;;;;7387078;19;20966;-53
2021/12/07 00:51:51;;;;;;;4.60;3.10;;;3.60;91.30;;;;;;7393443;19;20120;-53
2021/12/07 00:54:20;;;;;;;4.70;3.35;;;3.50;92.60;;;;;;7398193;19;20151;-53
2021/12/07 00:56:51;;;;;;;4.50;2.97;;;3.50;94.10;;;;;;7386180;19;20123;-53
2021/12/07 00:59:25;;;;;;;3.92;3.10;;;3.40;94.90;;;;;;7397163;19;20244;-53
2021/12/07 01:01:56;;;;;;;5.22;3.75;;;3.30;95.20;;;;;;7374917;19;20441;-53
2021/12/07 01:04:29;;;;;;;4.43;3.35;;;3.40;96.60;;;;;;7393947;19;20128;-53
2021/12/07 01:07:06;;;;;;;3.35;3.03;;;3.60;96.50;;;;;;7361825;19;20119;-53
2021/12/07 01:26:21;;;;;;;3.35;2.80;;;3.20;96.90;;;;;;7400972;19;20195;-53
2021/12/07 01:28:47;;;;;;;4.20;3.10;;;3.30;97.40;;;;;;7403219;19;20120;-53
2021/12/07 01:31:28;;;;;;;4.25;3.33;;;3.30;97.10;;;;;;7385315;19;20632;-54
2021/12/07 02:00:55;;;;;;;2.10;1.88;;;3.30;97.90;;;;;;7399643;19;20427;-50
2021/12/07 02:03:25;;;;;;;3.88;3.08;;;3.20;98.10;;;;;;7382107;19;20207;-51
2021/12/07 02:05:57;;;;;;;3.30;3.00;;;3.20;98.70;;;;;;7405295;19;20535;-50
2021/12/07 02:08:26;;;;;;;3.83;2.72;;;3.30;99.40;;;;;;7401271;19;20243;-50
2021/12/07 02:10:58;;;;;;;3.15;2.50;;;3.20;99.80;;;;;;7375183;19;20139;-53
2021/12/07 02:15:57;;;;;;;3.85;3.00;;;3.20;99.90;;;;;;7403233;19;20255;-53
2021/12/07 02:18:28;;;;;;;2.58;2.20;;;3.20;99.90;;;;;;7404791;19;20212;-53
2021/12/07 02:21:17;;;;;;;4.07;2.58;;;3.30;99.90;;;;;;7394468;19;20119;-54
2021/12/07 02:23:45;;;;;;;3.40;2.85;;;3.30;99.90;;;;;;7403098;19;20158;-53
2021/12/07 02:26:14;;;;;;;2.97;2.72;;;3.40;99.90;;;;;;7400347;19;20128;-54
2021/12/07 02:28:52;;;;;;;2.85;2.47;;;3.50;99.90;;;;;;7403877;19;20116;-53
2021/12/07 02:31:19;;;;;;;2.65;2.33;;;3.60;99.90;;;;;;7395087;19;20140;-53
2021/12/07 02:33:46;;;;;;;4.25;2.88;;;3.70;99.90;;;;;;7405121;19;20330;-53
2021/12/07 02:36:15;;;;;;;3.13;2.35;;;3.70;99.90;;;;;;7397109;19;20116;-53
2021/12/07 02:38:46;;;;;;;3.13;2.30;;;3.80;99.90;;;;;;7406295;19;20120;-53
2021/12/07 02:41:15;;;;;;;3.80;2.30;;;3.70;99.90;;;;;;7402499;19;20181;-54
2021/12/07 02:43:46;;;;;;;4.85;2.90;;;3.70;99.90;;;;;;7409214;19;20131;-53
2021/12/07 02:46:13;;;;;;;4.43;2.58;;;3.90;99.90;;;;;;7400504;19;20152;-53
2021/12/07 02:48:43;;;;;;;3.20;2.30;;;3.90;99.90;;;;;;7403630;19;20140;-54
2021/12/07 02:51:13;;;;;;;3.42;3.00;;;4.00;99.90;;;;;;7401004;19;20230;-53
2021/12/07 02:53:39;;;;;;;3.75;3.10;;;3.90;99.90;;;;;;7396065;19;20127;-53
2021/12/07 02:56:11;;;;;;;1.52;1.42;;;3.80;99.90;;;;;;7397474;19;20134;-53
2021/12/07 02:58:44;;;;;;;2.00;1.80;;;3.70;99.90;;;;;;7402378;19;20123;-53
2021/12/07 03:01:25;;;;;;;2.88;2.47;;;3.80;99.90;;;;;;7398592;19;20122;-53
2021/12/07 03:04:08;;;;;;;8.43;1.63;;;3.80;99.90;;;;;;7397451;19;20189;-53
2021/12/07 03:28:31;;;;;;;2.20;1.80;;;4.00;99.90;;;;;;7396178;19;20265;-50
2021/12/07 03:31:03;;;;;;;1.77;1.33;;;4.10;99.90;;;;;;7383504;19;20143;-50
2021/12/07 03:33:36;;;;;;;1.73;1.42;;;4.10;99.90;;;;;;7404425;19;20131;-50
2021/12/07 03:36:07;;;;;;;1.25;1.15;;;4.20;99.90;;;;;;7398007;19;20179;-50
2021/12/07 03:38:38;;;;;;;1.45;1.35;;;4.20;99.90;;;;;;7397096;19;20119;-51
2021/12/07 03:41:05;;;;;;;1.35;1.25;;;4.30;99.90;;;;;;7403801;19;20114;-50
2021/12/07 03:43:37;;;;;;;1.52;1.42;;;4.30;99.90;;;;;;7400547;19;20298;-51
2021/12/07 03:46:05;;;;;;;5.82;2.28;;;4.30;99.90;;;;;;7396055;19;20153;-51
2021/12/07 03:48:37;;;;;;;2.53;1.70;;;4.30;99.90;;;;;;7399645;19;20143;-50
2021/12/07 03:51:07;;;;;;;2.88;2.58;;;4.20;99.90;;;;;;7399780;19;20123;-53
2021/12/07 03:53:35;;;;;;;3.53;2.03;;;4.10;99.90;;;;;;7395812;19;20124;-53
2021/12/07 03:56:08;;;;;;;2.92;1.80;;;4.00;99.90;;;;;;7397123;19;20120;-54
2021/12/07 03:58:41;;;;;;;3.55;1.48;;;4.00;99.90;;;;;;7398859;19;20339;-53
2021/12/07 04:01:11;;;;;;;1.50;1.40;;;4.10;99.90;;;;;;7401794;19;20351;-53
2021/12/07 04:03:40;;;;;;;1.20;1.10;;;4.10;99.90;;;;;;7393241;19;20115;-53
2021/12/07 04:06:09;;;;;;;1.35;1.15;;;4.10;99.90;;;;;;7383995;19;20458;-53
2021/12/07 04:08:41;;;;;;;1.63;1.40;;;4.00;99.90;;;;;;7397388;19;20127;-53
2021/12/07 04:11:13;;;;;;;2.47;1.48;;;4.00;99.90;;;;;;7391897;19;20123;-54
2021/12/07 04:13:48;;;;;;;2.10;1.52;;;4.10;99.90;;;;;;7396207;19;20111;-53
2021/12/07 04:16:20;;;;;;;2.20;1.10;;;4.20;99.90;;;;;;7390500;19;20118;-52
2021/12/07 04:18:51;;;;;;;1.48;0.98;;;4.10;99.90;;;;;;7399367;19;20120;-54
2021/12/07 04:21:18;;;;;;;2.10;1.40;;;4.20;99.90;;;;;;7395343;19;20175;-50
2021/12/07 04:23:48;;;;;;;1.42;1.20;;;4.20;99.90;;;;;;7396381;19;20112;-51
2021/12/07 04:26:20;;;;;;;1.35;1.00;;;4.30;99.90;;;;;;7388628;19;20132;-51
2021/12/07 04:28:47;;;;;;;1.23;1.13;;;4.40;99.90;;;;;;7401662;19;20120;-51
2021/12/07 04:31:20;;;;;;;3.50;1.00;;;4.40;99.90;;;;;;7381160;19;20151;-50
2021/12/07 04:33:48;;;;;;;3.38;1.00;;;4.40;99.90;;;;;;7402617;19;20293;-50
2021/12/07 04:36:17;;;;;;;1.33;0.85;;;4.40;99.90;;;;;;7389674;19;20131;-51
2021/12/07 04:38:46;;;;;;;1.17;0.98;;;4.50;99.90;;;;;;7396514;19;20124;-51
2021/12/07 04:41:13;;;;;;;2.20;0.90;;;4.60;99.90;;;;;;7400105;19;20322;-51
2021/12/07 04:43:41;;;;;;;1.13;1.00;;;4.70;99.90;;;;;;7394114;19;20229;-51
2021/12/07 04:46:26;;;;;;;0.98;0.88;;;4.70;99.90;;;;;;7388639;19;20124;-50
2021/12/07 04:59:41;;;;;;;2.03;1.60;;;4.70;99.90;;;;;;7374972;19;20136;-53
2021/12/07 05:02:08;;;;;;;1.80;1.20;;;4.70;99.90;;;;;;7391155;19;20127;-53
2021/12/07 05:04:37;;;;;;;1.23;0.90;;;4.80;99.90;;;;;;7390140;19;20116;-53
2021/12/07 05:07:20;;;;;;;2.80;1.35;;;4.80;99.90;;;;;;7390531;19;20115;-53
2021/12/07 05:15:25;;;;;;;1.70;1.23;;;4.80;99.90;;;;;;7397669;19;20132;-53
2021/12/07 05:39:52;;;;;;;2.45;1.08;;;3.90;99.90;;;;;;7401402;19;20128;-53
2021/12/07 05:42:21;;;;;;;1.80;1.27;;;3.90;99.90;;;;;;7393622;19;22319;-53
2021/12/07 05:44:50;;;;;;;1.40;1.20;;;3.90;99.90;;;;;;7404604;19;20123;-53
2021/12/07 05:47:19;;;;;;;6.63;1.50;;;4.00;99.90;;;;;;7393679;19;20124;-53
2021/12/07 05:49:47;;;;;;;2.05;1.30;;;4.10;99.90;;;;;;7392054;19;20281;-53
2021/12/07 05:52:16;;;;;;;3.17;1.27;;;4.10;99.90;;;;;;7407046;19;20131;-53
2021/12/07 05:54:45;;;;;;;3.40;1.58;;;4.10;99.90;;;;;;7403004;19;20128;-53
2021/12/07 05:57:14;;;;;;;1.55;1.45;;;4.20;99.90;;;;;;7412306;19;20123;-54
2021/12/07 05:59:43;;;;;;;6.25;1.67;;;4.30;99.90;;;;;;7404908;19;20132;-51
2021/12/07 06:02:14;;;;;;;4.57;2.08;;;4.30;99.90;;;;;;7395810;19;20188;-50
2021/12/07 06:04:41;;;;;;;1.88;1.23;;;4.30;99.90;;;;;;7407327;19;20317;-50
2021/12/07 06:07:10;;;;;;;2.55;1.30;;;4.30;99.90;;;;;;7384781;19;20578;-51
2021/12/07 06:09:37;;;;;;;4.32;1.40;;;4.40;99.90;;;;;;7401894;19;20130;-51
2021/12/07 06:12:07;;;;;;;4.55;1.30;;;4.40;99.90;;;;;;7400935;19;20178;-50
2021/12/07 06:14:43;;;;;;;8.52;2.08;;;4.40;99.90;;;;;;7406800;19;20146;-51
2021/12/07 06:17:14;;;;;;;7.88;2.20;;;4.30;99.90;;;;;;7394906;19;20132;-51
2021/12/07 06:19:43;;;;;;;5.53;2.13;;;4.30;99.90;;;;;;7399348;19;20188;-50
2021/12/07 06:22:14;;;;;;;2.83;2.00;;;4.40;99.90;;;;;;7410013;19;20137;-50
2021/12/07 06:24:41;;;;;;;1.92;1.50;;;4.50;99.90;;;;;;7400919;19;20137;-50
2021/12/07 06:27:10;;;;;;;2.25;1.90;;;4.60;99.90;;;;;;7396802;19;20288;-51
2021/12/07 06:29:41;;;;;;;5.40;1.80;;;4.80;99.90;;;;;;7397859;19;20124;-54
2021/12/07 06:32:10;;;;;;;2.75;1.35;;;4.80;99.90;;;;;;7380460;19;20974;-54
2021/12/07 06:34:41;;;;;;;9.40;2.83;;;4.90;99.90;;;;;;7401708;19;20120;-53
2021/12/07 06:37:12;;;;;;;2.65;1.52;;;4.90;99.90;;;;;;7403993;19;20123;-54
2021/12/07 06:39:44;;;;;;;2.05;1.23;;;4.80;99.90;;;;;;7389962;19;20128;-54
2021/12/07 06:42:13;;;;;;;5.78;4.10;;;4.90;99.90;;;;;;7389046;19;20127;-54
2021/12/07 06:44:40;;;;;;;4.80;1.80;;;4.90;99.90;;;;;;7391520;19;20124;-54
2021/12/07 06:47:06;;;;;;;2.65;1.10;;;5.00;99.90;;;;;;7381485;19;20323;-54
2021/12/07 06:49:33;;;;;;;3.58;1.80;;;5.00;99.90;;;;;;7402546;19;20143;-54
2021/12/07 06:52:07;;;;;;;2.67;1.60;;;5.00;99.90;;;;;;7401573;19;20127;-54
2021/12/07 06:54:38;;;;;;;6.60;1.50;;;4.90;99.90;;;;;;7404288;19;20124;-54
2021/12/07 06:57:07;;;;;;;4.15;1.17;;;4.90;99.90;;;;;;7402573;19;20319;-54
2021/12/07 06:59:40;;;;;;;6.45;2.30;;;4.90;99.90;;;;;;7401993;19;20132;-54
2021/12/07 07:02:08;;;;;;;2.05;1.30;;;4.90;99.90;;;;;;7400695;19;20114;-54
2021/12/07 07:04:39;;;;;;;5.97;1.75;;;4.90;99.90;;;;;;7393545;19;20183;-53
2021/12/07 07:07:05;;;;;;;3.40;1.50;;;4.90;99.90;;;;;;7407236;19;20138;-53
2021/12/07 07:09:39;;;;;;;6.10;1.60;;;4.90;99.90;;;;;;7405500;19;20130;-54
2021/12/07 07:12:08;;;;;;;5.10;2.10;;;4.90;99.90;;;;;;7406107;19;20311;-54
2021/12/07 07:14:34;;;;;;;2.40;2.20;;;4.80;99.90;;;;;;7408584;19;20131;-54
2021/12/07 07:17:00;;;;;;;4.32;2.38;;;4.90;99.90;;;;;;7400629;19;20132;-54
2021/12/07 07:19:32;;;;;;;4.30;2.03;;;4.80;99.90;;;;;;7407661;19;20124;-54
2021/12/07 07:22:02;;;;;;;5.43;1.58;;;4.70;99.90;;;;;;7410422;19;20301;-53
2021/12/07 07:24:31;;;;;;;5.13;1.70;;;4.50;99.90;;;;;;7402478;19;20220;-54
2021/12/07 07:27:00;;;;;;;3.08;1.90;;;4.60;99.90;;;;;;7404925;19;20224;-54
2021/12/07 07:29:29;;;;;;;5.75;1.80;;;4.50;99.90;;;;;;7404851;19;20128;-54
2021/12/07 07:31:58;;;;;;;2.05;1.30;;;4.50;99.90;;;;;;7399456;19;20147;-54
2021/12/07 07:34:25;;;;;;;2.72;1.50;;;4.50;99.90;;;;;;7408226;19;20148;-54
2021/12/07 07:36:56;;;;;;;4.00;2.22;;;4.40;99.90;;;;;;7404089;19;20228;-54
2021/12/07 07:39:25;;;;;;;5.70;1.50;;;4.50;99.90;;;;;;7401673;19;20124;-54
2021/12/07 07:41:54;;;;;;;5.10;1.90;;;4.60;99.90;;;;;;7404667;19;20138;-54
2021/12/07 07:44:20;;;;;;;1.35;1.17;;;4.60;99.90;;;;;;7401555;19;20159;-54
2021/12/07 07:46:53;;;;;;;3.67;1.45;;;4.60;99.90;;;;;;7407136;19;20124;-53
2021/12/07 07:49:20;;;;;;;1.63;1.35;;;4.80;99.90;;;;;;7405579;19;20160;-54
2021/12/07 07:51:50;;;;;;;1.73;1.30;;;4.90;99.90;;;;;;7407655;19;20128;-54
2021/12/07 07:54:16;;;;;;;6.38;1.70;;;5.10;99.90;;;;;;7406365;19;20116;-54
2021/12/07 07:56:44;;;;;;;2.13;1.50;;;5.10;99.90;;;;;;7408981;19;20128;-54
2021/12/07 07:59:21;;;;;;;3.30;1.60;;;5.20;99.90;;;;;;7399162;19;20119;-54
2021/12/07 08:01:50;;;;;;;2.50;1.30;;;5.30;99.90;;;;;;7397663;19;20111;-54
2021/12/07 08:04:17;;;;;;;3.72;1.20;;;5.40;99.90;;;;;;7402381;19;20131;-54
2021/12/07 08:06:45;;;;;;;1.63;1.20;;;5.50;99.90;;;;;;7405431;19;20326;-54
2021/12/07 08:09:13;;;;;;;7.45;1.52;;;5.50;99.90;;;;;;7404511;19;20313;-54
2021/12/07 08:11:40;;;;;;;9.02;1.60;;;5.50;99.90;;;;;;7402964;19;20440;-54
2021/12/07 08:14:08;;;;;;;6.85;3.88;;;5.60;99.90;;;;;;7401214;19;20311;-55
2021/12/07 08:16:35;;;;;;;4.55;1.70;;;5.60;99.90;;;;;;7404073;19;20131;-54
2021/12/07 08:19:04;;;;;;;5.57;2.10;;;5.60;99.90;;;;;;7401092;19;20266;-54
2021/12/07 08:21:39;;;;;;;1.55;1.33;;;5.70;99.90;;;;;;7394107;19;20124;-54
2021/12/07 08:24:10;;;;;;;2.55;2.15;;;5.80;99.90;;;;;;7398378;19;20289;-54
2021/12/07 08:26:37;;;;;;;4.10;1.65;;;6.00;99.90;;;;;;7406300;19;20135;-54
2021/12/07 08:29:07;;;;;;;4.65;2.67;;;6.00;99.90;;;;;;7403939;19;20359;-54
2021/12/07 08:31:36;;;;;;;4.95;2.95;;;6.00;99.90;;;;;;7396975;19;20155;-54
2021/12/07 08:34:02;;;;;;;6.60;2.20;;;6.10;99.90;;;;;;7404553;19;20123;-54
2021/12/07 08:36:31;;;;;;;2.63;1.25;;;6.00;99.90;;;;;;7395386;19;20128;-54
2021/12/07 08:38:58;;;;;;;3.47;2.13;;;6.00;99.90;;;;;;7407896;19;20124;-54
2021/12/07 08:41:25;;;;;;;3.63;1.60;;;6.10;99.90;;;;;;7404437;19;20232;-55
2021/12/07 08:43:54;;;;;;;4.85;2.03;;;6.10;99.90;;;;;;7403871;19;20133;-54
2021/12/07 08:46:20;;;;;;;7.72;1.67;;;6.10;99.90;;;;;;7391970;19;20131;-54
2021/12/07 08:48:51;;;;;;;4.05;1.58;;;6.10;99.90;;;;;;7387857;19;20128;-54
2021/12/07 08:51:23;;;;;;;4.13;1.10;;;6.10;99.90;;;;;;7376668;19;20354;-54
2021/12/07 08:53:59;;;;;;;3.03;1.63;;;6.20;99.90;;;;;;7397284;19;20331;-55
2021/12/07 09:02:05;;;;;;;3.90;1.77;;;6.70;99.30;;;;;;7394949;19;20124;-55
2021/12/07 09:04:34;;;;;;;2.35;1.40;;;6.90;98.90;;;;;;7396993;19;20124;-54
2021/12/07 09:07:01;;;;;;;3.72;1.80;;;7.00;98.50;;;;;;7394919;19;20156;-55
2021/12/07 09:09:33;;;;;;;2.30;1.50;;;6.90;97.90;;;;;;7398850;19;20128;-55
2021/12/07 09:12:01;;;;;;;4.28;1.35;;;6.90;97.20;;;;;;7398878;19;20276;-54
2021/12/07 09:14:29;;;;;;;4.30;1.60;;;6.90;97.00;;;;;;7392531;19;20152;-54
2021/12/07 09:16:59;;;;;;;3.30;2.05;;;7.00;97.10;;;;;;7399334;19;20285;-54
2021/12/07 09:19:25;;;;;;;5.78;1.95;;;7.70;96.80;;;;;;7399928;19;20327;-54
2021/12/07 09:21:55;;;;;;;1.73;1.30;;;7.00;96.30;;;;;;7386009;19;20123;-54
2021/12/07 09:24:25;;;;;;;3.25;1.60;;;7.20;96.30;;;;;;7403480;19;20140;-55
2021/12/07 09:26:56;;;;;;;5.03;1.42;;;7.40;96.30;;;;;;7402240;19;20144;-54
2021/12/07 09:29:26;;;;;;;6.22;1.60;;;7.60;95.30;;;;;;7408454;19;20331;-54
2021/12/07 09:31:56;;;;;;;4.53;1.52;;;7.80;94.90;;;;;;7396636;19;20629;-54
2021/12/07 09:34:24;;;;;;;4.95;1.50;;;7.90;94.20;;;;;;7408586;19;20148;-55
2021/12/07 09:36:51;;;;;;;2.47;1.50;;;8.00;93.80;;;;;;7409756;19;20123;-54
2021/12/07 09:39:22;;;;;;;3.55;1.77;;;8.00;93.40;;;;;;7409595;19;20134;-54
2021/12/07 09:41:55;;;;;;;3.17;1.58;;;8.00;93.90;;;;;;7409616;19;20123;-55
2021/12/07 09:44:24;;;;;;;5.70;1.60;;;8.10;93.70;;;;;;7405118;19;20131;-55
2021/12/07 09:46:53;;;;;;;3.80;1.42;;;8.60;93.10;;;;;;7408744;19;20252;-54
2021/12/07 09:49:22;;;;;;;2.28;1.65;;;8.70;91.00;;;;;;7408162;19;20363;-54
2021/12/07 09:51:53;;;;;;;3.47;1.17;;;8.60;89.20;;;;;;7391311;19;20136;-54
2021/12/07 09:54:19;;;;;;;3.55;1.50;;;8.50;88.00;;;;;;7409435;19;20215;-54
2021/12/07 09:56:51;;;;;;;4.47;1.35;;;8.40;89.60;;;;;;7405920;19;20120;-54
2021/12/07 09:59:22;;;;;;;3.28;1.30;;;8.40;88.20;;;;;;7400146;19;20123;-54
2021/12/07 10:01:52;;;;;;;1.90;1.25;;;8.20;88.00;;;;;;7367772;19;20132;-54
2021/12/07 10:04:19;;;;;;;2.67;2.47;;;8.10;88.30;;;;;;7400303;19;20343;-54
2021/12/07 10:06:45;;;;;;;3.03;1.23;;;8.10;87.00;;;;;;7406267;19;20156;-54
2021/12/07 10:09:12;;;;;;;3.03;1.88;;;7.90;87.10;;;;;;7403560;19;20209;-55
2021/12/07 10:11:43;;;;;;;4.10;1.05;;;7.90;88.60;;;;;;7402707;19;20123;-54
2021/12/07 10:14:09;;;;;;;4.88;1.40;;;7.90;89.50;;;;;;7404028;19;20360;-54
2021/12/07 10:16:45;;;;;;;3.05;1.33;;;7.80;88.20;;;;;;7397054;19;20145;-55
2021/12/07 10:19:25;;;;;;;3.70;1.83;;;7.70;89.40;;;;;;7397538;19;20378;-54
2021/12/07 10:22:02;;;;;;;5.72;3.78;;;7.70;90.20;;;;;;7401400;19;20127;-54
2021/12/07 10:24:39;;;;;;;4.47;1.30;;;7.90;88.40;;;;;;7409834;19;20136;-55
2021/12/07 10:27:09;;;;;;;4.50;1.20;;;8.20;88.20;;;;;;7408245;19;20150;-54
2021/12/07 10:29:38;;;;;;;6.60;1.30;;;8.50;87.00;;;;;;7404703;19;20315;-55
2021/12/07 10:32:10;;;;;;;5.47;1.65;;;8.50;85.90;;;;;;7400228;19;20155;-54
2021/12/07 10:34:40;;;;;;;1.23;0.80;;;8.40;84.40;;;;;;7410213;19;20136;-54
2021/12/07 10:37:17;;;;;;;4.55;1.10;;;8.50;84.50;;;;;;7409404;19;20430;-54
2021/12/07 10:39:55;;;;;;;1.85;1.20;;;8.40;83.00;;;;;;7406278;19;20134;-55
2021/12/07 10:42:33;;;;;;;2.25;1.10;;;8.50;83.70;;;;;;7402735;19;20163;-54
2021/12/07 10:45:04;;;;;;;3.40;1.50;;;8.50;84.10;;;;;;7404366;19;20115;-54
2021/12/07 10:47:33;;;;;;;2.47;1.40;;;8.40;83.10;;;;;;7407407;19;20120;-54
2021/12/07 10:50:09;;;;;;;3.03;1.33;;;8.50;83.70;;;;;;7407355;19;20155;-54
2021/12/07 10:52:45;;;;;;;4.47;1.40;;;8.40;81.90;;;;;;7405279;19;20120;-54
2021/12/07 10:55:15;;;;;;;3.87;1.60;;;8.40;81.40;;;;;;7379235;19;20124;-54
2021/12/07 10:57:42;;;;;;;3.63;1.52;;;;;;;;;;7401104;19;20368;-55
2021/12/07 11:00:12;;;;;;;1.53;0.90;;;;;;;;;;7402186;19;20349;-54
2021/12/07 11:02:42;;;;;;;2.17;1.00;;;;;;;;;;7399185;19;20367;-54
2021/12/07 11:05:14;;;;;;;2.13;1.20;;;;;;;;;;7397287;19;20352;-55
2021/12/07 11:07:46;;;;;;;2.53;0.97;;;;;;;;;;7397109;19;20400;-54
2021/12/07 11:10:17;;;;;;;4.63;1.20;;;;;;;;;;7396884;19;20430;-54
2021/12/07 11:12:51;;;;;;;2.00;1.33;;;;;;;;;;7391759;19;20421;-54
2021/12/07 11:15:25;;;;;;;11.83;6.70;;;;;;;;;;7384908;19;20425;-53
2021/12/07 11:17:54;;;;;;;13.20;7.00;;;;;;;;;;7389376;19;20526;-54
2021/12/07 11:20:23;;;;;;;3.23;1.97;;;;;;;;;;7390265;19;20667;-54
2021/12/07 11:23:03;;;;;;;4.17;1.70;;;;;;;;;;7389898;19;20360;-54
2021/12/07 11:31:30;;;;;;;4.50;1.73;;;;;;;;;;7382765;19;20500;-54
2021/12/07 11:34:07;;;;;;;2.40;0.93;;;;;;;;;;7396396;19;20560;-54
2021/12/07 11:36:37;;;;;;;2.60;1.30;;;;;;;;;;7389749;19;21040;-54
2021/12/07 11:39:42;;;;;;;3.93;1.10;;;;;;;;;;7381958;19;20356;-54
2021/12/07 11:42:16;;;;;;;1.37;0.80;;;;;;;;;;7394395;19;21105;-53
2021/12/07 11:44:59;;;;;;;2.90;1.33;;;;;;;;;;7395153;19;20370;-54
2021/12/07 11:47:40;;;;;;;3.27;1.10;;;;;;;;;;7387486;19;20423;-53
2021/12/07 11:50:16;;;;;;;4.10;1.60;;;;;;;;;;7380435;19;20413;-53
2021/12/07 11:52:43;;;;;;;2.47;1.10;;;;;;;;;;7403637;19;20424;-54
2021/12/07 11:55:10;;;;;;;4.77;0.70;;;;;;;;;;7381582;19;20381;-54
2021/12/07 11:57:37;;;;;;;2.30;0.97;;;;;;;;;;7388019;19;20384;-54
2021/12/07 12:00:11;;;;;;;2.43;1.17;;;9.10;81.50;;;;;;7386547;19;20412;-52
2021/12/07 12:02:41;;;;;;;1.67;1.00;;;9.40;58.50;;;;;;7389615;19;20375;-52
2021/12/07 12:05:09;;;;;;;4.60;1.87;;;9.10;59.30;;;;;;7386255;19;20356;-52
2021/12/07 12:07:41;;;;;;;3.13;1.37;;;8.80;60.40;;;;;;7385420;19;20356;-53
2021/12/07 12:10:12;;;;;;;2.73;1.10;;;8.40;61.80;;;;;;7388174;19;20368;-52
2021/12/07 12:13:18;;;;;;;2.70;1.20;;;8.40;63.70;;;;;;7397948;19;20374;-52
2021/12/07 12:15:52;;;;;;;2.35;1.08;;;8.20;65.20;;;;;;7397304;19;20244;-52
2021/12/07 12:18:44;;;;;;;2.45;1.20;;;8.20;67.50;;;;;;7401162;19;20595;-52
2021/12/07 12:21:45;;;;;;;2.78;1.20;;;8.00;69.90;;;;;;7378999;19;20135;-52
2021/12/07 12:24:31;;;;;;;3.25;0.88;;;8.00;72.10;;;;;;7392894;19;20135;-52
2021/12/07 12:27:09;;;;;;;3.85;2.28;;;7.90;73.10;;;;;;7392053;19;20116;-52
2021/12/07 12:29:41;;;;;;;2.75;1.42;;;7.80;72.80;;;;;;7392005;19;20132;-52
2021/12/07 12:32:15;;;;;;;3.70;0.80;;;7.90;73.20;;;;;;7380773;19;20382;-52
2021/12/07 12:34:53;;;;;;;2.17;1.23;;;8.00;72.70;;;;;;7388043;19;20131;-52
2021/12/07 12:37:28;;;;;;;4.32;1.02;;;7.90;72.20;;;;;;7378344;19;20131;-52
2021/12/07 12:40:08;;;;;;;4.07;1.30;;;7.80;72.60;;;;;;7389233;19;20223;-52
2021/12/07 12:42:43;;;;;;;3.13;1.40;;;7.70;73.60;;;;;;7393258;19;20108;-52
2021/12/07 12:45:30;;;;;;;3.38;1.20;;;7.80;73.80;;;;;;7398299;19;20127;-52
2021/12/07 12:48:12;;;;;;;4.15;1.10;;;7.90;73.40;;;;;;7399556;19;20148;-52
2021/12/07 12:50:43;;;;;;;2.60;0.90;;;8.00;73.50;;;;;;7397930;19;20362;-52
2021/12/07 12:53:16;;;;;;;2.88;1.10;;;8.10;73.40;;;;;;7390267;19;20315;-52
2021/12/07 12:55:50;;;;;;;4.82;1.10;;;8.00;73.40;;;;;;7383383;19;20326;-52
2021/12/07 12:58:37;;;;;;;4.00;1.10;;;8.20;74.50;;;;;;7378134;19;20183;-52
2021/12/07 13:01:07;;;;;;;2.08;0.90;;;8.30;72.80;;;;;;7392329;19;20323;-52
2021/12/07 13:04:01;;;;;;;2.30;1.08;;;8.60;71.20;;;;;;7390720;19;20749;-52
2021/12/07 13:06:34;;;;;;;2.22;1.40;;;8.60;69.10;;;;;;7393318;19;20151;-51
2021/12/07 13:09:09;;;;;;;4.18;1.73;;;8.70;67.70;;;;;;7394513;19;20116;-51
2021/12/07 13:12:12;;;;;;;2.97;1.27;;;8.50;66.10;;;;;;7389466;19;20478;-53
2021/12/07 13:15:09;;;;;;;2.22;0.65;;;8.40;66.80;;;;;;7390056;19;20116;-53
2021/12/07 13:17:45;;;;;;;3.78;0.80;;;8.40;66.00;;;;;;7362836;19;20190;-53
2021/12/07 13:20:31;;;;;;;2.22;1.05;;;8.50;66.40;;;;;;7394296;19;20145;-53
2021/12/07 13:23:02;;;;;;;1.70;0.80;;;8.50;66.50;;;;;;7392215;19;20122;-53
2021/12/07 13:25:35;;;;;;;4.75;0.88;;;8.50;66.10;;;;;;7394832;19;20439;-53
2021/12/07 13:28:11;;;;;;;1.65;0.85;;;8.20;65.80;;;;;;7377473;19;20116;-55
2021/12/07 13:30:51;;;;;;;3.03;1.20;;;8.00;67.70;;;;;;7389052;19;20139;-55
2021/12/07 13:33:29;;;;;;;3.50;0.90;;;8.00;68.50;;;;;;7387752;19;20124;-53
2021/12/07 13:35:55;;;;;;;3.35;1.00;;;7.80;69.70;;;;;;7388451;19;20153;-53
2021/12/07 13:38:23;;;;;;;1.27;0.98;;;7.90;70.90;;;;;;7393116;19;20128;-53
2021/12/07 13:41:11;;;;;;;1.55;1.45;;;7.90;70.20;;;;;;7366132;19;20147;-53
2021/12/07 13:43:47;;;;;;;3.92;1.33;;;7.80;71.20;;;;;;7399482;19;20119;-53
2021/12/07 13:46:27;;;;;;;3.17;1.17;;;7.90;70.60;;;;;;7390953;19;20122;-53
2021/12/07 13:49:19;;;;;;;1.83;1.10;;;7.90;71.20;;;;;;7397789;19;20143;-53
2021/12/07 13:51:54;;;;;;;1.90;0.98;;;7.90;71.80;;;;;;7399663;19;20127;-53
2021/12/07 13:54:22;;;;;;;3.10;1.33;;;7.80;72.20;;;;;;7389390;19;20135;-53
2021/12/07 13:56:51;;;;;;;2.25;0.93;;;7.70;72.80;;;;;;7390196;19;20357;-53
2021/12/07 13:59:26;;;;;;;3.45;1.02;;;7.40;74.40;;;;;;7375746;19;20219;-53
2021/12/07 14:01:58;;;;;;;1.67;1.02;;;7.20;76.00;;;;;;7398768;19;20127;-53
2021/12/07 14:04:27;;;;;;;4.38;1.40;;;7.10;77.40;;;;;;7382011;19;20123;-53
2021/12/07 14:06:57;;;;;;;3.83;1.35;;;7.00;78.20;;;;;;7394503;19;20140;-53
2021/12/07 14:09:23;;;;;;;4.75;1.63;;;6.90;79.20;;;;;;7385532;19;20128;-50
2021/12/07 14:11:55;;;;;;;6.45;1.30;;;6.80;79.50;;;;;;7386435;19;20137;-50
2021/12/07 14:14:22;;;;;;;2.75;0.98;;;6.70;80.80;;;;;;7384514;19;20120;-49
2021/12/07 14:16:58;;;;;;;2.97;1.20;;;6.70;81.50;;;;;;7393789;19;20336;-49
2021/12/07 14:19:25;;;;;;;2.25;0.82;;;6.70;81.50;;;;;;7393459;19;20223;-49
2021/12/07 14:21:55;;;;;;;2.15;0.90;;;6.60;81.30;;;;;;7404171;19;20315;-49
2021/12/07 14:24:28;;;;;;;5.25;1.52;;;6.70;81.20;;;;;;7399221;19;20119;-49
2021/12/07 14:26:54;;;;;;;4.20;1.70;;;6.70;82.00;;;;;;7393427;19;20474;-49
2021/12/07 14:29:26;;;;;;;3.28;1.50;;;6.60;82.50;;;;;;7393680;19;20127;-51
2021/12/07 14:31:58;;;;;;;7.55;1.30;;;6.60;84.70;;;;;;7380708;19;20143;-50
2021/12/07 14:34:32;;;;;;;3.92;1.30;;;6.30;85.60;;;;;;7387806;19;20123;-50
2021/12/07 14:37:05;;;;;;;1.27;1.05;;;6.30;86.90;;;;;;7400218;19;20335;-50
2021/12/07 14:39:37;;;;;;;2.45;1.45;;;6.30;83.40;;;;;;7401738;19;20119;-52
2021/12/07 14:42:07;;;;;;;6.55;1.40;;;6.30;86.20;;;;;;7394291;19;20135;-53
2021/12/07 14:44:41;;;;;;;4.22;1.60;;;6.20;86.80;;;;;;7386929;19;20342;-53
2021/12/07 14:47:11;;;;;;;1.90;1.60;;;6.20;85.80;;;;;;7395385;19;20139;-53
2021/12/07 14:49:43;;;;;;;4.57;0.95;;;6.10;83.30;;;;;;7388924;19;20143;-52
2021/12/07 14:52:12;;;;;;;6.68;1.05;;;6.10;80.60;;;;;;7390274;19;20123;-53
2021/12/07 14:54:40;;;;;;;6.40;1.20;;;6.10;83.90;;;;;;7394657;19;20120;-53
2021/12/07 14:57:11;;;;;;;9.13;2.45;;;6.00;83.90;;;;;;7406677;19;20119;-52
2021/12/07 14:59:45;;;;;;;5.88;2.53;;;5.90;84.90;;;;;;7394756;19;20116;-52
2021/12/07 15:02:17;;;;;;;9.95;3.47;;;5.80;86.70;;;;;;7390494;19;20111;-52
2021/12/07 15:05:00;;;;;;;10.40;4.50;;;5.60;89.20;;;;;;7387164;19;20248;-52
2021/12/07 15:07:35;;;;;;;6.32;2.75;;;5.50;91.40;;;;;;7400371;19;20123;-52
2021/12/07 15:10:06;;;;;;;5.70;1.90;;;5.40;92.50;;;;;;7376684;19;20311;-50
2021/12/07 15:12:41;;;;;;;3.28;1.80;;;5.20;93.30;;;;;;7393307;19;20707;-50
2021/12/07 15:15:09;;;;;;;2.50;2.00;;;5.10;94.10;;;;;;7396069;19;20128;-50
2021/12/07 15:17:37;;;;;;;3.55;1.95;;;4.90;94.70;;;;;;7398112;19;20124;-50
2021/12/07 15:20:12;;;;;;;3.45;1.98;;;4.70;95.50;;;;;;7397604;19;20120;-50
2021/12/07 15:22:42;;;;;;;3.60;1.80;;;4.60;96.20;;;;;;7394753;19;20618;-50
2021/12/07 15:25:14;;;;;;;3.28;1.40;;;4.50;96.90;;;;;;7393044;19;20126;-50
2021/12/07 15:27:52;;;;;;;4.05;1.88;;;4.40;96.80;;;;;;7403384;19;20132;-50